Nearby METAR Reports

 

KCMH - Columbus, Ohio, USA
Distance from station: SW 5mi, 8km
Updated: Wed, 30-Sep-2020 7:51pm EDT
Light rain, Overcast
Light rain, Overcast
 Wind from calm
Wind: Calm
Temperature: 63°F , 17°C
Dew Point: 52°F , 11°C
Humidity: 68%
Barometer: 29.76 inHg , 1007.8 hPa
Summary: Light rain
Clouds: Overcast
Visibility: 10 miles , 16 km
Cloud details: Overcast 8000 ft
2020/09/30 23:51 KCMH 302351Z 00000KT 10SM -RA OVC080 17/11 A2976 RMK AO2 RAB47 SLP076 P0000 60000 T01670111 10183 20167 51013
KOSU - Columbus/St Univ, Ohio, USA
Distance from station: W 14mi, 23km
Updated: Wed, 30-Sep-2020 7:53pm EDT
Overcast
Overcast
 Wind from WNW
Wind: WNW 6 mph , 9 km/h
Temperature: 61°F , 16°C
Dew Point: 52°F , 11°C
Humidity: 72%
Barometer: 29.78 inHg , 1008.5 hPa
Clouds: Overcast
Visibility: 10 miles , 16 km
Cloud details: Mostly cloudy 6500 ft
Overcast 8000 ft
2020/09/30 23:53 KOSU 302353Z 30005KT 10SM BKN065 OVC080 16/11 A2978 RMK AO2 SLP083 T01560106 10183 20150 53018
 
KLCK - Rickenbacker Ang, Ohio, USA
Distance from station: SSW 17mi, 27km
Updated: Wed, 30-Sep-2020 7:55pm EDT
Heavy rain, Overcast
Heavy rain, Overcast
 Wind from WSW
Wind: WSW 5 mph , 7 km/h
Temperature: 63°F , 17°C
Dew Point: 50°F , 10°C
Humidity: 64%
Barometer: 29.77 inHg , 1008.1 hPa
Summary: Heavy rain
Clouds: Overcast
Visibility: 10 miles , 16 km
Cloud details: Overcast 6000 ft
2020/09/30 23:55 KLCK 302355Z AUTO 24004KT 10SM +RA OVC060 17/10 A2977 RMK AO2 T01660104 10324 20037
KVTA - Newark, Ohio, USA
Distance from station: E 19mi, 30km
Updated: Wed, 30-Sep-2020 7:54pm EDT
Light rain, Overcast
Light rain, Overcast
 Wind from NW
Wind: NW 5 mph , 7 km/h
Temperature: 59°F , 15°C
Dew Point: 54°F , 12°C
Humidity: 82%
Barometer: 29.77 inHg , 1008.1 hPa
Summary: Light rain
Clouds: Overcast
Visibility: 9 miles , 14 km
Cloud details: Few Clouds 6000 ft
Mostly cloudy 7500 ft
Overcast 9500 ft
2020/09/30 23:54 KVTA 302354Z AUTO 31004KT 9SM -RA FEW060 BKN075 OVC095 15/12 A2977 RMK AO2 RAB20 SLP082 P0000 60000 T01500122 10194 20150 53016
 
KTZR - Columbus/Bolton, Ohio, USA
Distance from station: WSW 20mi, 31km
Updated: Wed, 30-Sep-2020 8:35pm EDT
Overcast
Overcast
 Wind from NW
Wind: NW 7 mph , 11 km/h
Temperature: 61°F , 16°C
Dew Point: 52°F , 11°C
Humidity: 72%
Barometer: 29.81 inHg , 1009.5 hPa
Clouds: Overcast
Visibility: 10 miles , 16 km
Cloud details: Mostly cloudy 7000 ft
Overcast 9000 ft
2020/10/01 00:35 KTZR 010035Z AUTO 31006KT 10SM BKN070 OVC090 16/11 A2981 RMK AO2 T01620108
KLHQ - Lancaster, Ohio, USA
Distance from station: SSE 22mi, 36km
Updated: Wed, 30-Sep-2020 7:53pm EDT
Overcast
Overcast
 Wind from calm
Wind: Calm
Temperature: 61°F , 16°C
Dew Point: 54°F , 12°C
Humidity: 77%
Barometer: 29.77 inHg , 1008.1 hPa
Clouds: Overcast
Visibility: 10 miles , 16 km
Cloud details: Overcast 6000 ft
2020/09/30 23:53 KLHQ 302353Z AUTO 00000KT 10SM OVC060 16/12 A2977 RMK AO2 SLP082 T01610117 10194 20161 51016
 
KDLZ - Delaware, Ohio, USA
Distance from station: NW 23mi, 36km
Updated: Wed, 30-Sep-2020 8:35pm EDT
Partly cloudy
Partly cloudy
 Wind from W
Wind: W 9 mph , 15 km/h
Temperature: 59°F , 15°C
Dew Point: 45°F , 7°C
Humidity: 59%
Barometer: 29.80 inHg , 1009.1 hPa
Clouds: Partly cloudy
Visibility: 10 miles , 16 km
Cloud details: Partly cloudy 9000 ft
2020/10/01 00:35 KDLZ 010035Z AUTO 27008KT 10SM SCT090 15/07 A2980 RMK AO2
K4I3 - Mt Vernon/Knox, Ohio, USA
Distance from station: NE 25mi, 40km
Updated: Wed, 30-Sep-2020 8:35pm EDT
Mostly cloudy
Mostly cloudy
 Wind from WSW
Wind: WSW 7 mph , 11 km/h
Temperature: 57°F , 14°C
Dew Point: 48°F , 9°C
Humidity: 72%
Barometer: 29.80 inHg , 1009.1 hPa
Clouds: Mostly cloudy
Visibility: 10 miles , 16 km
Cloud details: Partly cloudy 6000 ft
Partly cloudy 7000 ft
Mostly cloudy 8500 ft
2020/10/01 00:35 K4I3 010035Z AUTO 25006KT 10SM SCT060 SCT070 BKN085 14/09 A2980 RMK AO2
 
KMRT - Marysville, Ohio, USA
Distance from station: WNW 30mi, 49km
Updated: Wed, 30-Sep-2020 8:19pm EDT
Mostly cloudy
Mostly cloudy
 Wind from W
Wind: W 7 mph , 11 km/h
Temperature: 59°F , 15°C
Dew Point: 45°F , 7°C
Humidity: 59%
Barometer: 29.81 inHg , 1009.5 hPa
Clouds: Mostly cloudy
Visibility: 10 miles , 16 km
Cloud details: Mostly cloudy 8000 ft
Mostly cloudy 11000 ft
2020/10/01 00:19 KMRT 010019Z AUTO 27006KT 10SM BKN080 BKN110 15/07 A2981 RMK AO1
KMNN - Marion, Ohio, USA
Distance from station: NNW 41mi, 67km
Updated: Wed, 30-Sep-2020 7:53pm EDT
Clear
Clear
 Wind from SW
Wind: SW 9 mph , 15 km/h
Temperature: 54°F , 12°C
Dew Point: 48°F , 9°C
Humidity: 82%
Barometer: 29.78 inHg , 1008.5 hPa
Clouds: Clear
Visibility: 10 miles , 16 km
2020/09/30 23:53 KMNN 302353Z AUTO 23008KT 10SM CLR 12/09 A2978 RMK AO2 SLP087 60001 T01220089 10167 20111 53013
 
KZZV - Zanesville, Ohio, USA
Distance from station: E 49mi, 79km
Updated: Wed, 30-Sep-2020 7:53pm EDT
Light rain, Overcast
Light rain, Overcast
 Wind from SSW
Wind: SSW 5 mph , 7 km/h
Temperature: 63°F , 17°C
Dew Point: 54°F , 12°C
Humidity: 73%
Barometer: 29.78 inHg , 1008.5 hPa
Summary: Light rain
Clouds: Overcast
Visibility: 10 miles , 16 km
Cloud details: Mostly cloudy 6500 ft
Mostly cloudy 8000 ft
Overcast 10000 ft
2020/09/30 23:53 KZZV 302353Z AUTO 20004KT 10SM -RA BKN065 BKN080 OVC100 17/12 A2978 RMK AO2 RAB2259 SLP082 P0001 60001 T01670117 10178 20161 51013